Wetterdaten: aktuell Donnerstag, 25.07.2024 17:13
Datum Zeit Temp. A. Feuchte A. Luftdruck Regen Wind Richtung Richtung Taupunkt Windchill
25.07.2024 17:13 27,9 C 25 % 1006,7 hPa 0,0 l/m 4,5 km/h (1 Bft) SW67.5 235 6,0 C 27,9 C
25.07.2024 17:10 28,0 C 26 % 1006,7 hPa 0,0 l/m 3,1 km/h (1 Bft) SO 145 6,7 C 28,0 C
25.07.2024 17:08 28,0 C 26 % 1006,7 hPa 0,0 l/m 7,4 km/h (2 Bft) SO22.5 135 6,7 C 27,8 C
25.07.2024 17:06 28,0 C 26 % 1006,7 hPa 0,0 l/m 7,4 km/h (2 Bft) SO22.5 135 6,7 C 27,8 C
25.07.2024 17:04 27,9 C 27 % 1006,7 hPa 0,0 l/m 4,5 km/h (1 Bft) O-SO22.5 120 7,2 C 27,9 C
25.07.2024 17:02 27,8 C 26 % 1006,7 hPa 0,0 l/m 6,8 km/h (2 Bft) S-SW22.5 200 6,5 C 27,7 C
25.07.2024 17:00 27,8 C 26 % 1006,7 hPa 0,0 l/m 7,0 km/h (2 Bft) W-NW 285 6,5 C 27,7 C
25.07.2024 16:58 27,8 C 26 % 1006,7 hPa 0,0 l/m 7,0 km/h (2 Bft) W-NW 285 6,5 C 27,7 C
25.07.2024 16:56 27,8 C 26 % 1006,7 hPa 0,0 l/m 0,3 km/h (0 Bft) N-NW67.5 330 6,5 C 27,8 C
25.07.2024 16:54 27,8 C 26 % 1006,7 hPa 0,0 l/m 4,6 km/h (1 Bft) NW22.5 305 6,5 C 27,8 C
25.07.2024 16:52 27,8 C 26 % 1006,7 hPa 0,0 l/m 4,6 km/h (1 Bft) NW22.5 305 6,5 C 27,8 C
25.07.2024 16:50 27,8 C 27 % 1006,7 hPa 0,0 l/m 4,8 km/h (1 Bft) SO45 145 7,1 C 27,8 C
25.07.2024 16:48 27,8 C 27 % 1006,7 hPa 0,0 l/m 0,6 km/h (0 Bft) S-SO22.5 160 7,1 C 27,8 C
25.07.2024 16:46 27,8 C 27 % 1006,7 hPa 0,0 l/m 0,7 km/h (0 Bft) N-NO67.5 20 7,1 C 27,8 C
25.07.2024 16:44 27,7 C 28 % 1006,7 hPa 0,0 l/m 0,7 km/h (0 Bft) N-NO67.5 20 7,5 C 27,7 C
25.07.2024 16:42 27,7 C 28 % 1006,7 hPa 0,0 l/m 0,7 km/h (0 Bft) N-NO67.5 20 7,5 C 27,7 C
25.07.2024 16:40 27,7 C 27 % 1006,7 hPa 0,0 l/m 0,6 km/h (0 Bft) N-NW 330 7,0 C 27,7 C
25.07.2024 16:38 27,7 C 27 % 1006,7 hPa 0,0 l/m 0,2 km/h (0 Bft) NO22.5 35 7,0 C 27,7 C
25.07.2024 16:36 27,7 C 27 % 1006,7 hPa 0,0 l/m 0,2 km/h (0 Bft) NO22.5 35 7,0 C 27,7 C
25.07.2024 16:34 27,8 C 27 % 1006,7 hPa 0,0 l/m 0,2 km/h (0 Bft) NO22.5 35 7,1 C 27,8 C
25.07.2024 16:32 27,8 C 26 % 1006,7 hPa 0,0 l/m 5,0 km/h (1 Bft) SO22.5 140 6,5 C 27,8 C
25.07.2024 16:30 27,8 C 26 % 1006,7 hPa 0,0 l/m 5,0 km/h (1 Bft) SO22.5 140 6,5 C 27,8 C
25.07.2024 16:28 27,8 C 26 % 1006,7 hPa 0,0 l/m 5,0 km/h (1 Bft) SO22.5 140 6,5 C 27,8 C
25.07.2024 16:26 27,8 C 28 % 1006,7 hPa 0,0 l/m 6,7 km/h (2 Bft) O-SO45 120 7,6 C 27,8 C
25.07.2024 16:24 27,8 C 28 % 1006,7 hPa 0,0 l/m 4,4 km/h (1 Bft) O67.5 95 7,6 C 27,8 C
25.07.2024 16:22 27,8 C 27 % 1006,7 hPa 0,0 l/m 4,4 km/h (1 Bft) O67.5 95 7,1 C 27,8 C
25.07.2024 16:20 27,8 C 27 % 1006,7 hPa 0,0 l/m 4,4 km/h (1 Bft) O67.5 95 7,1 C 27,8 C
25.07.2024 16:18 27,7 C 28 % 1006,7 hPa 0,0 l/m 11,3 km/h (2 Bft) SO45 125 7,5 C 27,0 C
25.07.2024 16:16 27,7 C 28 % 1006,7 hPa 0,0 l/m 5,9 km/h (2 Bft) SO45 140 7,5 C 27,7 C
25.07.2024 16:14 27,5 C 28 % 1006,7 hPa 0,0 l/m 5,9 km/h (2 Bft) SO45 140 7,3 C 27,5 C
25.07.2024 16:12 27,4 C 27 % 1006,7 hPa 0,0 l/m 3,2 km/h (1 Bft) W-SW67.5 245 6,7 C 27,4 C
25.07.2024 16:10 27,4 C 27 % 1006,7 hPa 0,0 l/m 3,3 km/h (1 Bft) SO 145 6,7 C 27,4 C
25.07.2024 16:08 27,3 C 27 % 1006,7 hPa 0,0 l/m 3,3 km/h (1 Bft) SO 145 6,6 C 27,3 C
25.07.2024 16:06 27,1 C 28 % 1006,7 hPa 0,0 l/m 6,7 km/h (2 Bft) S45 170 7,0 C 27,0 C
25.07.2024 16:04 27,1 C 28 % 1006,7 hPa 0,0 l/m 0,4 km/h (0 Bft) W-NW45 285 7,0 C 27,1 C
25.07.2024 16:02 27,0 C 28 % 1006,7 hPa 0,0 l/m 4,6 km/h (1 Bft) W-NW 295 6,9 C 27,0 C
25.07.2024 16:00 27,1 C 28 % 1006,7 hPa 0,0 l/m 4,6 km/h (1 Bft) W-NW 295 7,0 C 27,1 C
25.07.2024 15:58 27,1 C 28 % 1006,7 hPa 0,0 l/m 3,0 km/h (1 Bft) W-NW45 290 7,0 C 27,1 C
25.07.2024 15:56 27,0 C 28 % 1006,7 hPa 0,0 l/m 0,0 km/h (0 Bft) NW 305 6,9 C 27,0 C
25.07.2024 15:54 27,0 C 27 % 1006,7 hPa 0,0 l/m 0,0 km/h (0 Bft) NW 305 6,4 C 27,0 C
25.07.2024 15:52 27,0 C 27 % 1006,7 hPa 0,0 l/m 6,4 km/h (2 Bft) NW22.5 310 6,4 C 27,0 C
_ Min-Zeit 05:54 15:28 17:06 - 00:00 - - 15:32 05:54
Minimum _ 15,1 C 24 % 1006,7 hPa - 0,0 km/h (0 Bft) - - 5,0 C 15,1 C
_ Max-Zeit 17:06 05:04 00:38 00:00 14:48 - - 02:38 17:10
Maximum _ 28,0 C 82 % 1013,1 hPa 0,0 l/m 13,1 km/h
SO (3 Bft)
- - 12,5 C 28,0 C
Durchschnitt _ 20,8 C 56 % 1010,3 hPa #0,0 l/m 1,5 km/h (1 Bft) SO - 10,3 C 20,8 C